sensor_id;sensor_type;location;lat;lon;timestamp;P1;durP1;ratioP1;P2;durP2;ratioP2
11197;SDS011;5655;48.744;9.162;2022-10-30T00:00:33;8.02;;;2.80;;
11197;SDS011;5655;48.744;9.162;2022-10-30T00:02:58;6.47;;;2.65;;
11197;SDS011;5655;48.744;9.162;2022-10-30T00:05:25;10.25;;;3.13;;
11197;SDS011;5655;48.744;9.162;2022-10-30T00:07:50;10.38;;;3.28;;
11197;SDS011;5655;48.744;9.162;2022-10-30T00:10:16;9.13;;;3.47;;
11197;SDS011;5655;48.744;9.162;2022-10-30T00:12:42;8.10;;;3.20;;
11197;SDS011;5655;48.744;9.162;2022-10-30T00:15:08;11.32;;;3.10;;
11197;SDS011;5655;48.744;9.162;2022-10-30T00:17:35;10.93;;;3.50;;
11197;SDS011;5655;48.744;9.162;2022-10-30T00:20:00;11.07;;;3.05;;
11197;SDS011;5655;48.744;9.162;2022-10-30T00:22:25;8.82;;;3.50;;
11197;SDS011;5655;48.744;9.162;2022-10-30T00:24:51;12.32;;;3.22;;
11197;SDS011;5655;48.744;9.162;2022-10-30T00:27:16;12.85;;;3.05;;
11197;SDS011;5655;48.744;9.162;2022-10-30T00:29:42;8.13;;;3.42;;
11197;SDS011;5655;48.744;9.162;2022-10-30T00:32:07;9.77;;;3.42;;
11197;SDS011;5655;48.744;9.162;2022-10-30T00:34:32;7.93;;;3.08;;
11197;SDS011;5655;48.744;9.162;2022-10-30T00:36:58;8.10;;;2.80;;
11197;SDS011;5655;48.744;9.162;2022-10-30T00:39:23;7.60;;;2.67;;
11197;SDS011;5655;48.744;9.162;2022-10-30T00:41:49;12.93;;;3.60;;
11197;SDS011;5655;48.744;9.162;2022-10-30T00:44:34;10.88;;;3.40;;
11197;SDS011;5655;48.744;9.162;2022-10-30T00:47:19;9.90;;;3.08;;
11197;SDS011;5655;48.744;9.162;2022-10-30T00:50:00;9.82;;;4.03;;
11197;SDS011;5655;48.744;9.162;2022-10-30T00:52:31;13.20;;;3.60;;
11197;SDS011;5655;48.744;9.162;2022-10-30T00:55:01;12.82;;;3.20;;
11197;SDS011;5655;48.744;9.162;2022-10-30T00:57:32;12.23;;;3.17;;
11197;SDS011;5655;48.744;9.162;2022-10-30T00:59:59;9.98;;;3.17;;
11197;SDS011;5655;48.744;9.162;2022-10-30T01:02:25;7.95;;;3.58;;
11197;SDS011;5655;48.744;9.162;2022-10-30T01:04:51;8.75;;;3.20;;
11197;SDS011;5655;48.744;9.162;2022-10-30T01:07:18;10.80;;;3.05;;
11197;SDS011;5655;48.744;9.162;2022-10-30T01:09:44;14.35;;;3.38;;
11197;SDS011;5655;48.744;9.162;2022-10-30T01:12:11;13.90;;;3.60;;
11197;SDS011;5655;48.744;9.162;2022-10-30T01:14:37;10.15;;;3.10;;
11197;SDS011;5655;48.744;9.162;2022-10-30T01:19:52;9.60;;;3.13;;
11197;SDS011;5655;48.744;9.162;2022-10-30T01:28:33;9.15;;;3.10;;
11197;SDS011;5655;48.744;9.162;2022-10-30T01:39:17;10.38;;;2.72;;
11197;SDS011;5655;48.744;9.162;2022-10-30T01:41:45;7.95;;;2.67;;
11197;SDS011;5655;48.744;9.162;2022-10-30T01:44:22;7.93;;;2.33;;
11197;SDS011;5655;48.744;9.162;2022-10-30T02:00:32;10.88;;;3.30;;
11197;SDS011;5655;48.744;9.162;2022-10-30T02:02:57;9.85;;;3.08;;
11197;SDS011;5655;48.744;9.162;2022-10-30T02:08:02;8.77;;;3.10;;
11197;SDS011;5655;48.744;9.162;2022-10-30T02:10:28;10.07;;;3.40;;
11197;SDS011;5655;48.744;9.162;2022-10-30T02:12:55;9.48;;;3.28;;
11197;SDS011;5655;48.744;9.162;2022-10-30T02:15:21;8.23;;;3.08;;
11197;SDS011;5655;48.744;9.162;2022-10-30T02:17:46;12.70;;;3.30;;
11197;SDS011;5655;48.744;9.162;2022-10-30T02:20:18;15.68;;;3.63;;
11197;SDS011;5655;48.744;9.162;2022-10-30T02:22:44;11.27;;;3.25;;
11197;SDS011;5655;48.744;9.162;2022-10-30T02:25:10;11.80;;;2.97;;
11197;SDS011;5655;48.744;9.162;2022-10-30T02:27:36;10.35;;;3.28;;
11197;SDS011;5655;48.744;9.162;2022-10-30T02:30:01;9.23;;;3.45;;
11197;SDS011;5655;48.744;9.162;2022-10-30T02:32:27;9.52;;;3.50;;
11197;SDS011;5655;48.744;9.162;2022-10-30T02:34:53;13.18;;;4.45;;
11197;SDS011;5655;48.744;9.162;2022-10-30T02:37:18;13.27;;;4.18;;
11197;SDS011;5655;48.744;9.162;2022-10-30T02:39:43;17.60;;;4.55;;
11197;SDS011;5655;48.744;9.162;2022-10-30T02:42:09;16.80;;;4.18;;
11197;SDS011;5655;48.744;9.162;2022-10-30T02:44:34;10.43;;;3.92;;
11197;SDS011;5655;48.744;9.162;2022-10-30T02:46:59;13.40;;;4.10;;
11197;SDS011;5655;48.744;9.162;2022-10-30T02:49:25;13.50;;;4.25;;
11197;SDS011;5655;48.744;9.162;2022-10-30T02:51:50;10.30;;;3.45;;
11197;SDS011;5655;48.744;9.162;2022-10-30T02:54:15;15.60;;;4.13;;
11197;SDS011;5655;48.744;9.162;2022-10-30T02:56:41;12.48;;;4.25;;
11197;SDS011;5655;48.744;9.162;2022-10-30T02:59:06;8.90;;;3.50;;
11197;SDS011;5655;48.744;9.162;2022-10-30T03:01:31;14.23;;;3.85;;
11197;SDS011;5655;48.744;9.162;2022-10-30T03:03:57;11.60;;;4.35;;
11197;SDS011;5655;48.744;9.162;2022-10-30T03:06:22;12.18;;;4.70;;
11197;SDS011;5655;48.744;9.162;2022-10-30T03:08:47;10.90;;;4.28;;
11197;SDS011;5655;48.744;9.162;2022-10-30T03:11:14;10.82;;;4.50;;
11197;SDS011;5655;48.744;9.162;2022-10-30T03:13:41;13.23;;;4.20;;
11197;SDS011;5655;48.744;9.162;2022-10-30T03:16:09;8.90;;;4.53;;
11197;SDS011;5655;48.744;9.162;2022-10-30T03:18:37;14.98;;;4.45;;
11197;SDS011;5655;48.744;9.162;2022-10-30T03:21:03;12.82;;;4.43;;
11197;SDS011;5655;48.744;9.162;2022-10-30T03:23:30;11.80;;;4.03;;
11197;SDS011;5655;48.744;9.162;2022-10-30T03:25:56;13.70;;;4.80;;
11197;SDS011;5655;48.744;9.162;2022-10-30T03:28:23;7.32;;;4.40;;
11197;SDS011;5655;48.744;9.162;2022-10-30T03:30:50;9.35;;;4.53;;
11197;SDS011;5655;48.744;9.162;2022-10-30T03:33:21;13.40;;;4.90;;
11197;SDS011;5655;48.744;9.162;2022-10-30T03:35:47;11.25;;;4.95;;
11197;SDS011;5655;48.744;9.162;2022-10-30T03:38:12;11.80;;;4.50;;
11197;SDS011;5655;48.744;9.162;2022-10-30T03:40:38;13.57;;;4.70;;
11197;SDS011;5655;48.744;9.162;2022-10-30T03:43:03;11.02;;;4.38;;
11197;SDS011;5655;48.744;9.162;2022-10-30T03:45:28;8.75;;;3.97;;
11197;SDS011;5655;48.744;9.162;2022-10-30T03:47:55;12.98;;;4.30;;
11197;SDS011;5655;48.744;9.162;2022-10-30T03:50:20;10.30;;;4.05;;
11197;SDS011;5655;48.744;9.162;2022-10-30T03:52:45;11.48;;;3.90;;
11197;SDS011;5655;48.744;9.162;2022-10-30T03:55:11;10.85;;;4.18;;
11197;SDS011;5655;48.744;9.162;2022-10-30T03:57:36;11.07;;;4.53;;
11197;SDS011;5655;48.744;9.162;2022-10-30T04:00:02;13.00;;;4.95;;
11197;SDS011;5655;48.744;9.162;2022-10-30T04:02:29;12.68;;;4.63;;
11197;SDS011;5655;48.744;9.162;2022-10-30T04:04:54;9.30;;;4.40;;
11197;SDS011;5655;48.744;9.162;2022-10-30T04:07:20;12.98;;;4.45;;
11197;SDS011;5655;48.744;9.162;2022-10-30T04:09:45;11.38;;;4.18;;
11197;SDS011;5655;48.744;9.162;2022-10-30T04:12:10;13.98;;;4.55;;
11197;SDS011;5655;48.744;9.162;2022-10-30T04:14:36;11.95;;;4.25;;
11197;SDS011;5655;48.744;9.162;2022-10-30T04:17:01;14.38;;;4.25;;
11197;SDS011;5655;48.744;9.162;2022-10-30T04:19:26;15.65;;;4.07;;
11197;SDS011;5655;48.744;9.162;2022-10-30T04:21:52;13.15;;;4.18;;
11197;SDS011;5655;48.744;9.162;2022-10-30T04:24:17;10.02;;;4.38;;
11197;SDS011;5655;48.744;9.162;2022-10-30T04:26:43;8.75;;;3.65;;
11197;SDS011;5655;48.744;9.162;2022-10-30T04:29:08;12.38;;;4.10;;
11197;SDS011;5655;48.744;9.162;2022-10-30T04:31:33;12.07;;;4.80;;
11197;SDS011;5655;48.744;9.162;2022-10-30T04:33:59;10.75;;;4.78;;
11197;SDS011;5655;48.744;9.162;2022-10-30T04:36:24;12.60;;;4.97;;
11197;SDS011;5655;48.744;9.162;2022-10-30T04:38:54;11.02;;;4.28;;
11197;SDS011;5655;48.744;9.162;2022-10-30T04:41:20;11.38;;;4.80;;
11197;SDS011;5655;48.744;9.162;2022-10-30T04:43:47;11.68;;;4.70;;
11197;SDS011;5655;48.744;9.162;2022-10-30T04:46:13;10.20;;;4.15;;
11197;SDS011;5655;48.744;9.162;2022-10-30T04:48:38;14.93;;;4.15;;
11197;SDS011;5655;48.744;9.162;2022-10-30T04:51:04;12.18;;;4.32;;
11197;SDS011;5655;48.744;9.162;2022-10-30T04:53:30;7.88;;;4.30;;
11197;SDS011;5655;48.744;9.162;2022-10-30T04:55:55;16.10;;;5.15;;
11197;SDS011;5655;48.744;9.162;2022-10-30T04:58:21;12.57;;;5.10;;
11197;SDS011;5655;48.744;9.162;2022-10-30T05:00:46;10.70;;;5.32;;
11197;SDS011;5655;48.744;9.162;2022-10-30T05:03:18;13.02;;;5.38;;
11197;SDS011;5655;48.744;9.162;2022-10-30T05:05:54;12.82;;;5.05;;
11197;SDS011;5655;48.744;9.162;2022-10-30T05:08:22;11.32;;;4.55;;
11197;SDS011;5655;48.744;9.162;2022-10-30T05:10:47;10.80;;;4.78;;
11197;SDS011;5655;48.744;9.162;2022-10-30T05:13:12;11.27;;;4.38;;
11197;SDS011;5655;48.744;9.162;2022-10-30T05:15:38;10.80;;;4.97;;
11197;SDS011;5655;48.744;9.162;2022-10-30T05:18:03;11.35;;;4.72;;
11197;SDS011;5655;48.744;9.162;2022-10-30T05:20:29;10.55;;;4.45;;
11197;SDS011;5655;48.744;9.162;2022-10-30T05:22:54;13.93;;;5.20;;
11197;SDS011;5655;48.744;9.162;2022-10-30T05:25:21;17.90;;;5.03;;
11197;SDS011;5655;48.744;9.162;2022-10-30T05:27:47;10.20;;;4.03;;
11197;SDS011;5655;48.744;9.162;2022-10-30T05:30:12;7.57;;;3.83;;
11197;SDS011;5655;48.744;9.162;2022-10-30T05:32:37;15.38;;;4.40;;
11197;SDS011;5655;48.744;9.162;2022-10-30T05:35:03;8.50;;;3.60;;
11197;SDS011;5655;48.744;9.162;2022-10-30T05:37:28;13.73;;;4.30;;
11197;SDS011;5655;48.744;9.162;2022-10-30T05:39:54;7.35;;;3.72;;
11197;SDS011;5655;48.744;9.162;2022-10-30T05:42:19;12.63;;;4.22;;
11197;SDS011;5655;48.744;9.162;2022-10-30T05:44:44;11.75;;;3.88;;
11197;SDS011;5655;48.744;9.162;2022-10-30T05:47:10;12.38;;;4.53;;
11197;SDS011;5655;48.744;9.162;2022-10-30T05:49:35;16.27;;;4.72;;
11197;SDS011;5655;48.744;9.162;2022-10-30T05:52:00;11.90;;;4.47;;
11197;SDS011;5655;48.744;9.162;2022-10-30T05:54:26;9.50;;;4.13;;
11197;SDS011;5655;48.744;9.162;2022-10-30T05:56:51;8.82;;;3.75;;
11197;SDS011;5655;48.744;9.162;2022-10-30T05:59:16;10.45;;;4.22;;
11197;SDS011;5655;48.744;9.162;2022-10-30T06:01:42;9.35;;;3.97;;
11197;SDS011;5655;48.744;9.162;2022-10-30T06:04:07;10.57;;;3.83;;
11197;SDS011;5655;48.744;9.162;2022-10-30T06:06:32;9.60;;;4.00;;
11197;SDS011;5655;48.744;9.162;2022-10-30T06:08:58;6.25;;;3.53;;
11197;SDS011;5655;48.744;9.162;2022-10-30T06:11:23;12.05;;;3.88;;
11197;SDS011;5655;48.744;9.162;2022-10-30T06:13:48;7.43;;;3.90;;
11197;SDS011;5655;48.744;9.162;2022-10-30T06:16:14;11.05;;;4.43;;
11197;SDS011;5655;48.744;9.162;2022-10-30T06:18:39;10.52;;;4.28;;
11197;SDS011;5655;48.744;9.162;2022-10-30T06:21:04;11.18;;;4.78;;
11197;SDS011;5655;48.744;9.162;2022-10-30T06:23:30;12.35;;;4.65;;
11197;SDS011;5655;48.744;9.162;2022-10-30T06:25:55;11.90;;;4.45;;
11197;SDS011;5655;48.744;9.162;2022-10-30T06:28:20;13.50;;;4.82;;
11197;SDS011;5655;48.744;9.162;2022-10-30T06:30:45;11.20;;;4.68;;
11197;SDS011;5655;48.744;9.162;2022-10-30T06:33:11;10.98;;;4.63;;
11197;SDS011;5655;48.744;9.162;2022-10-30T06:35:36;9.68;;;4.05;;
11197;SDS011;5655;48.744;9.162;2022-10-30T06:38:01;12.60;;;4.47;;
11197;SDS011;5655;48.744;9.162;2022-10-30T06:40:28;13.70;;;4.72;;
11197;SDS011;5655;48.744;9.162;2022-10-30T06:42:54;10.13;;;4.57;;
11197;SDS011;5655;48.744;9.162;2022-10-30T06:45:21;9.52;;;4.53;;
11197;SDS011;5655;48.744;9.162;2022-10-30T06:47:47;11.27;;;4.05;;
11197;SDS011;5655;48.744;9.162;2022-10-30T06:50:14;12.27;;;4.47;;
11197;SDS011;5655;48.744;9.162;2022-10-30T06:52:44;14.82;;;4.30;;
11197;SDS011;5655;48.744;9.162;2022-10-30T06:55:10;7.35;;;3.40;;
11197;SDS011;5655;48.744;9.162;2022-10-30T06:57:35;8.93;;;3.13;;
11197;SDS011;5655;48.744;9.162;2022-10-30T07:00:01;8.77;;;3.97;;
11197;SDS011;5655;48.744;9.162;2022-10-30T07:02:27;9.25;;;3.25;;
11197;SDS011;5655;48.744;9.162;2022-10-30T07:04:52;8.45;;;3.13;;
11197;SDS011;5655;48.744;9.162;2022-10-30T07:07:18;12.60;;;4.00;;
11197;SDS011;5655;48.744;9.162;2022-10-30T07:09:43;8.63;;;3.35;;
11197;SDS011;5655;48.744;9.162;2022-10-30T07:12:10;9.77;;;3.13;;
11197;SDS011;5655;48.744;9.162;2022-10-30T07:14:36;10.25;;;3.45;;
11197;SDS011;5655;48.744;9.162;2022-10-30T07:17:01;9.05;;;3.58;;
11197;SDS011;5655;48.744;9.162;2022-10-30T07:19:26;8.23;;;3.80;;
11197;SDS011;5655;48.744;9.162;2022-10-30T07:21:52;11.38;;;3.55;;
11197;SDS011;5655;48.744;9.162;2022-10-30T07:24:17;10.85;;;3.38;;
11197;SDS011;5655;48.744;9.162;2022-10-30T07:26:42;9.75;;;3.63;;
11197;SDS011;5655;48.744;9.162;2022-10-30T07:29:08;8.85;;;3.35;;
11197;SDS011;5655;48.744;9.162;2022-10-30T07:31:33;11.20;;;3.50;;
11197;SDS011;5655;48.744;9.162;2022-10-30T07:33:59;9.18;;;3.40;;
11197;SDS011;5655;48.744;9.162;2022-10-30T07:36:24;11.35;;;4.05;;
11197;SDS011;5655;48.744;9.162;2022-10-30T07:38:50;8.77;;;3.83;;
11197;SDS011;5655;48.744;9.162;2022-10-30T07:41:19;6.78;;;3.08;;
11197;SDS011;5655;48.744;9.162;2022-10-30T07:43:45;8.25;;;3.70;;
11197;SDS011;5655;48.744;9.162;2022-10-30T07:46:11;10.85;;;3.25;;
11197;SDS011;5655;48.744;9.162;2022-10-30T07:48:37;7.53;;;4.22;;
11197;SDS011;5655;48.744;9.162;2022-10-30T07:51:02;9.35;;;3.55;;
11197;SDS011;5655;48.744;9.162;2022-10-30T07:53:28;10.75;;;4.00;;
11197;SDS011;5655;48.744;9.162;2022-10-30T07:55:54;12.13;;;3.65;;
11197;SDS011;5655;48.744;9.162;2022-10-30T07:58:19;16.40;;;3.90;;
11197;SDS011;5655;48.744;9.162;2022-10-30T08:00:44;12.68;;;3.92;;
11197;SDS011;5655;48.744;9.162;2022-10-30T08:03:10;8.52;;;3.65;;
11197;SDS011;5655;48.744;9.162;2022-10-30T08:05:36;9.52;;;4.53;;
11197;SDS011;5655;48.744;9.162;2022-10-30T08:08:01;11.50;;;3.83;;
11197;SDS011;5655;48.744;9.162;2022-10-30T08:10:26;15.48;;;4.65;;
11197;SDS011;5655;48.744;9.162;2022-10-30T08:12:52;9.95;;;4.05;;
11197;SDS011;5655;48.744;9.162;2022-10-30T08:15:17;12.43;;;4.93;;
11197;SDS011;5655;48.744;9.162;2022-10-30T08:17:43;13.80;;;4.70;;
11197;SDS011;5655;48.744;9.162;2022-10-30T08:20:11;9.90;;;4.93;;
11197;SDS011;5655;48.744;9.162;2022-10-30T08:25:10;11.73;;;4.85;;
11197;SDS011;5655;48.744;9.162;2022-10-30T08:27:35;8.13;;;4.50;;
11197;SDS011;5655;48.744;9.162;2022-10-30T08:30:00;10.52;;;4.63;;
11197;SDS011;5655;48.744;9.162;2022-10-30T08:32:26;11.15;;;4.60;;
11197;SDS011;5655;48.744;9.162;2022-10-30T08:34:51;11.68;;;4.43;;
11197;SDS011;5655;48.744;9.162;2022-10-30T08:37:16;10.90;;;4.50;;
11197;SDS011;5655;48.744;9.162;2022-10-30T08:39:41;9.25;;;4.80;;
11197;SDS011;5655;48.744;9.162;2022-10-30T08:42:07;9.02;;;4.47;;
11197;SDS011;5655;48.744;9.162;2022-10-30T08:44:32;9.95;;;4.47;;
11197;SDS011;5655;48.744;9.162;2022-10-30T08:46:57;8.57;;;3.90;;
11197;SDS011;5655;48.744;9.162;2022-10-30T08:49:23;10.45;;;4.55;;
11197;SDS011;5655;48.744;9.162;2022-10-30T08:51:48;13.57;;;3.88;;
11197;SDS011;5655;48.744;9.162;2022-10-30T08:54:13;8.75;;;3.88;;
11197;SDS011;5655;48.744;9.162;2022-10-30T08:56:39;12.32;;;4.65;;
11197;SDS011;5655;48.744;9.162;2022-10-30T08:59:04;8.40;;;3.65;;
11197;SDS011;5655;48.744;9.162;2022-10-30T09:01:29;7.47;;;3.70;;
11197;SDS011;5655;48.744;9.162;2022-10-30T09:03:55;7.85;;;3.58;;
11197;SDS011;5655;48.744;9.162;2022-10-30T09:06:20;10.15;;;4.20;;
11197;SDS011;5655;48.744;9.162;2022-10-30T09:08:45;9.25;;;3.88;;
11197;SDS011;5655;48.744;9.162;2022-10-30T09:11:10;12.05;;;4.80;;
11197;SDS011;5655;48.744;9.162;2022-10-30T09:13:36;13.98;;;5.18;;
11197;SDS011;5655;48.744;9.162;2022-10-30T09:16:01;7.55;;;3.70;;
11197;SDS011;5655;48.744;9.162;2022-10-30T09:18:28;14.75;;;4.43;;
11197;SDS011;5655;48.744;9.162;2022-10-30T09:20:53;10.23;;;4.35;;
11197;SDS011;5655;48.744;9.162;2022-10-30T09:23:19;9.48;;;4.20;;
11197;SDS011;5655;48.744;9.162;2022-10-30T09:25:44;11.07;;;4.53;;
11197;SDS011;5655;48.744;9.162;2022-10-30T09:28:09;11.70;;;4.38;;
11197;SDS011;5655;48.744;9.162;2022-10-30T09:30:35;8.80;;;4.00;;
11197;SDS011;5655;48.744;9.162;2022-10-30T09:33:00;12.48;;;3.92;;
11197;SDS011;5655;48.744;9.162;2022-10-30T09:35:26;10.38;;;3.65;;
11197;SDS011;5655;48.744;9.162;2022-10-30T09:37:52;7.68;;;3.58;;
11197;SDS011;5655;48.744;9.162;2022-10-30T09:40:21;15.30;;;4.43;;
11197;SDS011;5655;48.744;9.162;2022-10-30T09:42:50;7.40;;;3.65;;
11197;SDS011;5655;48.744;9.162;2022-10-30T09:56:25;7.32;;;3.47;;
11197;SDS011;5655;48.744;9.162;2022-10-30T10:07:27;12.10;;;3.35;;
11197;SDS011;5655;48.744;9.162;2022-10-30T10:09:55;10.90;;;3.53;;
11197;SDS011;5655;48.744;9.162;2022-10-30T10:12:26;10.18;;;3.35;;
11197;SDS011;5655;48.744;9.162;2022-10-30T10:14:57;8.40;;;3.60;;
11197;SDS011;5655;48.744;9.162;2022-10-30T10:17:34;10.25;;;2.95;;
11197;SDS011;5655;48.744;9.162;2022-10-30T10:20:05;11.23;;;3.45;;
11197;SDS011;5655;48.744;9.162;2022-10-30T10:23:01;7.68;;;2.50;;
11197;SDS011;5655;48.744;9.162;2022-10-30T10:25:36;7.15;;;2.97;;
11197;SDS011;5655;48.744;9.162;2022-10-30T10:39:35;10.23;;;3.17;;
11197;SDS011;5655;48.744;9.162;2022-10-30T10:50:44;5.65;;;2.30;;
11197;SDS011;5655;48.744;9.162;2022-10-30T10:55:50;6.85;;;2.65;;
11197;SDS011;5655;48.744;9.162;2022-10-30T10:58:24;6.82;;;3.08;;
11197;SDS011;5655;48.744;9.162;2022-10-30T11:01:03;7.25;;;3.25;;
11197;SDS011;5655;48.744;9.162;2022-10-30T11:06:23;8.00;;;3.78;;
11197;SDS011;5655;48.744;9.162;2022-10-30T11:08:52;7.32;;;3.80;;
11197;SDS011;5655;48.744;9.162;2022-10-30T11:11:51;6.22;;;3.58;;
11197;SDS011;5655;48.744;9.162;2022-10-30T11:14:19;15.57;;;4.22;;
11197;SDS011;5655;48.744;9.162;2022-10-30T11:16:50;5.53;;;3.08;;
11197;SDS011;5655;48.744;9.162;2022-10-30T11:19:35;6.80;;;3.17;;
11197;SDS011;5655;48.744;9.162;2022-10-30T11:22:01;11.65;;;3.42;;
11197;SDS011;5655;48.744;9.162;2022-10-30T11:24:29;7.85;;;3.47;;
11197;SDS011;5655;48.744;9.162;2022-10-30T11:26:57;11.55;;;3.58;;
11197;SDS011;5655;48.744;9.162;2022-10-30T11:29:39;8.30;;;3.33;;
11197;SDS011;5655;48.744;9.162;2022-10-30T11:32:19;7.97;;;3.42;;
11197;SDS011;5655;48.744;9.162;2022-10-30T11:37:37;8.15;;;3.42;;
11197;SDS011;5655;48.744;9.162;2022-10-30T11:42:40;6.18;;;2.95;;
11197;SDS011;5655;48.744;9.162;2022-10-30T11:45:24;9.93;;;3.78;;
11197;SDS011;5655;48.744;9.162;2022-10-30T11:47:53;10.63;;;3.22;;
11197;SDS011;5655;48.744;9.162;2022-10-30T11:50:21;11.55;;;3.55;;
11197;SDS011;5655;48.744;9.162;2022-10-30T11:52:49;10.15;;;3.50;;
11197;SDS011;5655;48.744;9.162;2022-10-30T11:55:18;6.43;;;2.90;;
11197;SDS011;5655;48.744;9.162;2022-10-30T11:57:49;16.15;;;3.85;;
11197;SDS011;5655;48.744;9.162;2022-10-30T12:00:23;6.97;;;2.97;;
11197;SDS011;5655;48.744;9.162;2022-10-30T12:02:51;8.82;;;3.08;;
11197;SDS011;5655;48.744;9.162;2022-10-30T12:07:53;4.95;;;2.83;;
11197;SDS011;5655;48.744;9.162;2022-10-30T12:10:39;9.30;;;3.35;;
11197;SDS011;5655;48.744;9.162;2022-10-30T12:13:25;9.57;;;3.53;;
11197;SDS011;5655;48.744;9.162;2022-10-30T12:16:04;12.68;;;4.22;;
11197;SDS011;5655;48.744;9.162;2022-10-30T12:18:50;11.15;;;3.55;;
11197;SDS011;5655;48.744;9.162;2022-10-30T12:21:19;10.75;;;3.78;;
11197;SDS011;5655;48.744;9.162;2022-10-30T12:23:49;9.23;;;3.88;;
11197;SDS011;5655;48.744;9.162;2022-10-30T12:26:18;7.38;;;3.20;;
11197;SDS011;5655;48.744;9.162;2022-10-30T12:28:48;11.45;;;2.90;;
11197;SDS011;5655;48.744;9.162;2022-10-30T12:31:29;10.75;;;3.13;;
11197;SDS011;5655;48.744;9.162;2022-10-30T12:34:05;9.25;;;3.28;;
11197;SDS011;5655;48.744;9.162;2022-10-30T12:36:43;9.02;;;3.35;;
11197;SDS011;5655;48.744;9.162;2022-10-30T12:39:17;8.48;;;2.92;;
11197;SDS011;5655;48.744;9.162;2022-10-30T12:44:34;6.15;;;3.28;;
11197;SDS011;5655;48.744;9.162;2022-10-30T12:47:08;12.38;;;2.97;;
11197;SDS011;5655;48.744;9.162;2022-10-30T12:49:40;7.30;;;3.40;;
11197;SDS011;5655;48.744;9.162;2022-10-30T12:52:14;11.15;;;3.28;;
11197;SDS011;5655;48.744;9.162;2022-10-30T12:57:27;11.05;;;4.40;;
11197;SDS011;5655;48.744;9.162;2022-10-30T13:00:10;7.65;;;3.05;;
11197;SDS011;5655;48.744;9.162;2022-10-30T13:05:45;7.03;;;3.17;;
11197;SDS011;5655;48.744;9.162;2022-10-30T13:10:52;9.02;;;2.97;;
11197;SDS011;5655;48.744;9.162;2022-10-30T13:15:50;9.70;;;3.55;;
11197;SDS011;5655;48.744;9.162;2022-10-30T13:18:20;10.38;;;4.90;;
11197;SDS011;5655;48.744;9.162;2022-10-30T13:20:58;6.78;;;2.85;;
11197;SDS011;5655;48.744;9.162;2022-10-30T13:28:46;6.88;;;2.60;;
11197;SDS011;5655;48.744;9.162;2022-10-30T13:31:37;8.25;;;2.40;;
11197;SDS011;5655;48.744;9.162;2022-10-30T13:37:13;6.22;;;2.35;;
11197;SDS011;5655;48.744;9.162;2022-10-30T13:40:19;4.03;;;2.10;;
11197;SDS011;5655;48.744;9.162;2022-10-30T13:51:34;6.22;;;2.72;;
11197;SDS011;5655;48.744;9.162;2022-10-30T13:54:24;7.28;;;2.40;;
11197;SDS011;5655;48.744;9.162;2022-10-30T13:56:51;11.20;;;2.35;;
11197;SDS011;5655;48.744;9.162;2022-10-30T13:59:23;8.82;;;2.50;;
11197;SDS011;5655;48.744;9.162;2022-10-30T14:04:46;8.38;;;2.42;;
11197;SDS011;5655;48.744;9.162;2022-10-30T14:07:19;8.77;;;3.05;;
11197;SDS011;5655;48.744;9.162;2022-10-30T14:13:20;7.63;;;2.00;;
11197;SDS011;5655;48.744;9.162;2022-10-30T14:16:31;5.32;;;2.28;;
11197;SDS011;5655;48.744;9.162;2022-10-30T14:18:59;6.88;;;2.08;;
11197;SDS011;5655;48.744;9.162;2022-10-30T14:21:37;3.80;;;1.70;;
11197;SDS011;5655;48.744;9.162;2022-10-30T14:26:45;4.78;;;2.00;;
11197;SDS011;5655;48.744;9.162;2022-10-30T14:32:01;6.63;;;2.00;;
11197;SDS011;5655;48.744;9.162;2022-10-30T14:39:53;5.47;;;2.10;;
11197;SDS011;5655;48.744;9.162;2022-10-30T14:42:19;4.90;;;2.70;;
11197;SDS011;5655;48.744;9.162;2022-10-30T14:58:34;8.35;;;3.15;;
11197;SDS011;5655;48.744;9.162;2022-10-30T15:01:18;9.48;;;3.30;;
11197;SDS011;5655;48.744;9.162;2022-10-30T15:03:56;7.18;;;3.47;;
11197;SDS011;5655;48.744;9.162;2022-10-30T15:14:40;7.38;;;3.00;;
11197;SDS011;5655;48.744;9.162;2022-10-30T15:17:18;6.93;;;3.38;;
11197;SDS011;5655;48.744;9.162;2022-10-30T15:19:52;8.85;;;4.00;;
11197;SDS011;5655;48.744;9.162;2022-10-30T15:22:18;9.02;;;3.78;;
11197;SDS011;5655;48.744;9.162;2022-10-30T15:24:45;8.18;;;3.40;;
11197;SDS011;5655;48.744;9.162;2022-10-30T15:27:16;8.57;;;4.00;;
11197;SDS011;5655;48.744;9.162;2022-10-30T15:29:45;8.30;;;3.80;;
11197;SDS011;5655;48.744;9.162;2022-10-30T15:32:16;7.78;;;3.47;;
11197;SDS011;5655;48.744;9.162;2022-10-30T15:35:19;6.93;;;3.83;;
11197;SDS011;5655;48.744;9.162;2022-10-30T15:37:39;5.63;;;3.30;;
11197;SDS011;5655;48.744;9.162;2022-10-30T15:40:20;9.95;;;3.95;;
11197;SDS011;5655;48.744;9.162;2022-10-30T15:42:46;8.32;;;3.60;;
11197;SDS011;5655;48.744;9.162;2022-10-30T15:45:17;13.02;;;4.30;;
11197;SDS011;5655;48.744;9.162;2022-10-30T15:47:46;10.73;;;4.35;;
11197;SDS011;5655;48.744;9.162;2022-10-30T15:50:22;8.68;;;3.95;;
11197;SDS011;5655;48.744;9.162;2022-10-30T15:52:47;8.77;;;4.28;;
11197;SDS011;5655;48.744;9.162;2022-10-30T15:55:14;9.55;;;4.25;;
11197;SDS011;5655;48.744;9.162;2022-10-30T16:00:21;9.73;;;4.60;;
11197;SDS011;5655;48.744;9.162;2022-10-30T16:05:37;9.13;;;4.53;;
11197;SDS011;5655;48.744;9.162;2022-10-30T16:08:08;8.27;;;4.63;;
11197;SDS011;5655;48.744;9.162;2022-10-30T16:10:44;8.93;;;4.72;;
11197;SDS011;5655;48.744;9.162;2022-10-30T16:13:11;10.20;;;4.93;;
11197;SDS011;5655;48.744;9.162;2022-10-30T16:15:42;11.02;;;4.70;;
11197;SDS011;5655;48.744;9.162;2022-10-30T16:18:14;13.00;;;5.43;;
11197;SDS011;5655;48.744;9.162;2022-10-30T16:20:45;9.73;;;5.45;;
11197;SDS011;5655;48.744;9.162;2022-10-30T16:23:15;11.05;;;5.32;;
11197;SDS011;5655;48.744;9.162;2022-10-30T16:25:41;9.02;;;5.05;;
11197;SDS011;5655;48.744;9.162;2022-10-30T16:28:20;8.77;;;4.80;;
11197;SDS011;5655;48.744;9.162;2022-10-30T16:30:58;11.13;;;4.95;;
11197;SDS011;5655;48.744;9.162;2022-10-30T16:33:26;9.27;;;5.00;;
11197;SDS011;5655;48.744;9.162;2022-10-30T16:35:53;6.75;;;4.53;;
11197;SDS011;5655;48.744;9.162;2022-10-30T16:38:20;10.93;;;4.60;;
11197;SDS011;5655;48.744;9.162;2022-10-30T16:40:46;9.20;;;4.82;;
11197;SDS011;5655;48.744;9.162;2022-10-30T16:43:28;10.38;;;6.07;;
11197;SDS011;5655;48.744;9.162;2022-10-30T16:46:03;13.48;;;6.82;;
11197;SDS011;5655;48.744;9.162;2022-10-30T16:48:45;13.63;;;6.78;;
11197;SDS011;5655;48.744;9.162;2022-10-30T16:51:18;16.58;;;8.35;;
11197;SDS011;5655;48.744;9.162;2022-10-30T16:53:49;12.70;;;7.13;;
11197;SDS011;5655;48.744;9.162;2022-10-30T16:58:50;12.52;;;5.65;;
11197;SDS011;5655;48.744;9.162;2022-10-30T17:01:18;15.52;;;6.82;;
11197;SDS011;5655;48.744;9.162;2022-10-30T17:03:48;17.08;;;7.47;;
11197;SDS011;5655;48.744;9.162;2022-10-30T17:08:58;14.50;;;5.95;;
11197;SDS011;5655;48.744;9.162;2022-10-30T17:11:33;13.38;;;6.25;;
11197;SDS011;5655;48.744;9.162;2022-10-30T17:14:03;13.38;;;5.93;;
11197;SDS011;5655;48.744;9.162;2022-10-30T17:16:39;13.30;;;6.55;;
11197;SDS011;5655;48.744;9.162;2022-10-30T17:19:42;11.27;;;6.47;;
11197;SDS011;5655;48.744;9.162;2022-10-30T17:21:57;10.88;;;6.18;;
11197;SDS011;5655;48.744;9.162;2022-10-30T17:24:29;14.38;;;6.00;;
11197;SDS011;5655;48.744;9.162;2022-10-30T17:26:58;7.90;;;5.35;;
11197;SDS011;5655;48.744;9.162;2022-10-30T17:32:03;9.32;;;5.05;;
11197;SDS011;5655;48.744;9.162;2022-10-30T17:34:31;8.55;;;4.85;;
11197;SDS011;5655;48.744;9.162;2022-10-30T17:37:01;8.25;;;4.22;;
11197;SDS011;5655;48.744;9.162;2022-10-30T17:39:26;7.88;;;4.60;;
11197;SDS011;5655;48.744;9.162;2022-10-30T17:41:51;13.43;;;4.32;;
11197;SDS011;5655;48.744;9.162;2022-10-30T17:44:21;8.60;;;3.97;;
11197;SDS011;5655;48.744;9.162;2022-10-30T17:46:48;11.32;;;4.88;;
11197;SDS011;5655;48.744;9.162;2022-10-30T17:49:21;9.65;;;4.28;;
11197;SDS011;5655;48.744;9.162;2022-10-30T17:51:55;8.85;;;4.45;;
11197;SDS011;5655;48.744;9.162;2022-10-30T17:54:20;9.45;;;4.55;;